Time;durP1;ratioP1;P1;durP2;ratioP2;P2;SDS_P1;SDS_P2;PMS_P1;PMS_P2;Temp;Humidity;BMP_temperature;BMP_pressure;BME280_temperature;BME280_humidity;BME280_pressure;Samples;Min_cycle;Max_cycle;Signal;HPM_P1;HPM_P2
2023/12/30 00:00:21;;;;;;;9.77;1.40;;;;;;;;;;5078503;28;20085;-86
2023/12/30 00:03:06;;;;;;;10.70;1.95;;;;;;;;;;5065843;28;20035;-86
2023/12/30 00:05:51;;;;;;;10.70;1.83;;;;;;;;;;5089471;28;20069;-86
2023/12/30 00:08:35;;;;;;;12.23;2.40;;;;;;;;;;5071120;28;20075;-86
2023/12/30 00:11:20;;;;;;;8.40;1.60;;;;;;;;;;5078028;28;20549;-85
2023/12/30 00:14:05;;;;;;;10.18;2.50;;;;;;;;;;5076687;28;20511;-86
2023/12/30 00:16:50;;;;;;;8.77;1.63;;;;;;;;;;5077172;28;20116;-86
2023/12/30 00:19:36;;;;;;;14.23;2.30;;;;;;;;;;5068615;28;20094;-86
2023/12/30 00:22:20;;;;;;;5.13;1.27;;;;;;;;;;5092480;28;20043;-86
2023/12/30 00:25:05;;;;;;;10.85;2.00;;;;;;;;;;5064883;28;20051;-85
2023/12/30 00:27:51;;;;;;;13.25;1.90;;;;;;;;;;5061528;28;20036;-85
2023/12/30 00:30:36;;;;;;;10.32;1.75;;;;;;;;;;5092302;28;20051;-89
2023/12/30 00:33:21;;;;;;;9.63;2.05;;;;;;;;;;5063202;28;20556;-86
2023/12/30 00:36:05;;;;;;;9.05;1.85;;;;;;;;;;5091942;28;20138;-86
2023/12/30 00:38:53;;;;;;;7.38;1.45;;;;;;;;;;5071097;28;20039;-86
2023/12/30 00:41:37;;;;;;;8.27;1.92;;;;;;;;;;5092019;28;20082;-86
2023/12/30 00:44:23;;;;;;;7.03;2.60;;;;;;;;;;5076397;28;20067;-86
2023/12/30 00:47:07;;;;;;;10.32;1.98;;;;;;;;;;5077030;28;20039;-85
2023/12/30 00:49:52;;;;;;;7.40;1.45;;;;;;;;;;5075685;28;20065;-85
2023/12/30 00:52:37;;;;;;;12.13;2.22;;;;;;;;;;5091786;28;20517;-85
2023/12/30 00:55:21;;;;;;;8.32;1.30;;;;;;;;;;5075700;28;20121;-86
2023/12/30 00:58:06;;;;;;;13.38;1.95;;;;;;;;;;5062604;28;20059;-86
2023/12/30 01:00:51;;;;;;;8.85;1.58;;;;;;;;;;5062725;28;20077;-86
2023/12/30 01:03:35;;;;;;;9.20;1.50;;;;;;;;;;5077016;28;20066;-87
2023/12/30 01:06:20;;;;;;;4.30;1.13;;;;;;;;;;5080223;28;20063;-86
2023/12/30 01:09:04;;;;;;;7.43;1.60;;;;;;;;;;5075744;28;20058;-87
2023/12/30 01:11:49;;;;;;;7.50;1.50;;;;;;;;;;5076972;28;20042;-86
2023/12/30 01:14:34;;;;;;;10.10;1.58;;;;;;;;;;5066864;28;20400;-86
2023/12/30 01:17:18;;;;;;;8.32;1.73;;;;;;;;;;5089900;28;20061;-86
2023/12/30 01:20:03;;;;;;;10.30;1.50;;;;;;;;;;5076014;28;20050;-89
2023/12/30 01:22:48;;;;;;;11.90;2.55;;;;;;;;;;5076818;28;20408;-86
2023/12/30 01:25:32;;;;;;;8.52;1.35;;;;;;;;;;5091706;28;20140;-86
2023/12/30 01:28:17;;;;;;;12.80;1.33;;;;;;;;;;5078588;28;20047;-86
2023/12/30 01:31:01;;;;;;;5.72;1.25;;;;;;;;;;5075949;28;20048;-90
2023/12/30 01:33:46;;;;;;;7.82;1.17;;;;;;;;;;5091885;28;20039;-87
2023/12/30 01:36:30;;;;;;;11.75;1.60;;;;;;;;;;5080411;28;20043;-86
2023/12/30 01:39:15;;;;;;;13.80;2.15;;;;;;;;;;5090765;28;20488;-86
2023/12/30 01:42:00;;;;;;;10.30;1.40;;;;;;;;;;5071767;28;20051;-86
2023/12/30 01:44:44;;;;;;;7.35;1.30;;;;;;;;;;5059159;28;20518;-86
2023/12/30 01:47:29;;;;;;;8.35;1.33;;;;;;;;;;5090945;28;20124;-86
2023/12/30 01:50:14;;;;;;;11.85;1.13;;;;;;;;;;5064745;28;20051;-86
2023/12/30 01:52:58;;;;;;;9.57;1.70;;;;;;;;;;5090938;28;20054;-86
2023/12/30 01:55:43;;;;;;;5.95;1.70;;;;;;;;;;5090889;28;20055;-87
2023/12/30 01:58:28;;;;;;;9.70;1.50;;;;;;;;;;5075504;28;20753;-86
2023/12/30 02:01:13;;;;;;;8.98;1.38;;;;;;;;;;5090231;28;20123;-87
2023/12/30 02:03:58;;;;;;;10.02;1.75;;;;;;;;;;5060512;28;20544;-87
2023/12/30 02:06:42;;;;;;;14.00;2.17;;;;;;;;;;5075963;28;20051;-87
2023/12/30 02:09:27;;;;;;;9.82;1.63;;;;;;;;;;5073944;28;20051;-86
2023/12/30 02:12:11;;;;;;;10.77;2.50;;;;;;;;;;5075465;28;20042;-89
2023/12/30 02:15:11;;;;;;;6.57;1.42;;;;;;;;;;5090932;28;20036;-85
2023/12/30 02:17:56;;;;;;;8.00;2.22;;;;;;;;;;5080870;28;20039;-87
2023/12/30 02:20:41;;;;;;;12.85;1.60;;;;;;;;;;5091112;28;20494;-86
2023/12/30 02:23:25;;;;;;;11.40;1.80;;;;;;;;;;5074922;28;20120;-86
2023/12/30 02:26:10;;;;;;;7.60;1.40;;;;;;;;;;5090881;28;20035;-87
2023/12/30 02:28:54;;;;;;;8.82;1.95;;;;;;;;;;5075938;28;20134;-86
2023/12/30 02:31:45;;;;;;;9.57;1.58;;;;;;;;;;5075468;28;20047;-86
2023/12/30 02:34:30;;;;;;;10.65;1.80;;;;;;;;;;5073246;28;20395;-86
2023/12/30 02:37:14;;;;;;;8.50;2.22;;;;;;;;;;5085372;28;20454;-89
2023/12/30 02:39:59;;;;;;;8.10;1.70;;;;;;;;;;5090903;28;20051;-87
2023/12/30 02:42:44;;;;;;;6.53;1.85;;;;;;;;;;5090574;28;20043;-87
2023/12/30 02:45:28;;;;;;;11.75;1.92;;;;;;;;;;5064287;28;20093;-87
2023/12/30 02:48:12;;;;;;;9.43;3.17;;;;;;;;;;5061179;28;20069;-86
2023/12/30 02:50:59;;;;;;;11.38;1.98;;;;;;;;;;5075651;28;20507;-86
2023/12/30 02:53:43;;;;;;;15.48;1.73;;;;;;;;;;5068443;28;20052;-87
2023/12/30 02:56:28;;;;;;;7.20;1.15;;;;;;;;;;5085885;28;20328;-86
2023/12/30 02:59:13;;;;;;;7.60;1.45;;;;;;;;;;5075466;28;20125;-88
2023/12/30 03:01:57;;;;;;;8.75;2.22;;;;;;;;;;5078982;28;20039;-87
2023/12/30 03:04:42;;;;;;;10.13;1.80;;;;;;;;;;5074444;28;20035;-87
2023/12/30 03:07:26;;;;;;;10.57;1.88;;;;;;;;;;5074827;28;20089;-87
2023/12/30 03:10:11;;;;;;;9.68;1.80;;;;;;;;;;5050487;28;20498;-88
2023/12/30 03:12:56;;;;;;;9.88;1.48;;;;;;;;;;5075027;28;20082;-87
2023/12/30 03:15:40;;;;;;;9.35;1.98;;;;;;;;;;5060570;28;20566;-88
2023/12/30 03:18:24;;;;;;;11.50;2.53;;;;;;;;;;5043189;28;20098;-87
2023/12/30 03:21:10;;;;;;;6.85;1.77;;;;;;;;;;5093007;28;20487;-87
2023/12/30 03:23:55;;;;;;;5.05;1.60;;;;;;;;;;5078224;28;20065;-87
2023/12/30 03:26:39;;;;;;;11.00;2.38;;;;;;;;;;5078216;28;20437;-87
2023/12/30 03:29:24;;;;;;;7.82;1.80;;;;;;;;;;5093420;28;20093;-89
2023/12/30 03:32:08;;;;;;;9.65;2.17;;;;;;;;;;5064283;28;20047;-88
2023/12/30 03:34:53;;;;;;;10.23;1.60;;;;;;;;;;5093952;28;20412;-87
2023/12/30 03:37:37;;;;;;;9.38;1.60;;;;;;;;;;5065368;28;20101;-87
2023/12/30 03:40:22;;;;;;;10.55;2.08;;;;;;;;;;5064464;28;20101;-87
2023/12/30 03:43:06;;;;;;;8.40;1.40;;;;;;;;;;5073357;28;20496;-87
2023/12/30 03:45:51;;;;;;;11.93;2.40;;;;;;;;;;5087473;28;20040;-88
2023/12/30 03:48:36;;;;;;;8.60;1.75;;;;;;;;;;5093439;28;20063;-87
2023/12/30 03:51:21;;;;;;;10.20;1.50;;;;;;;;;;5077689;28;20090;-87
2023/12/30 03:54:05;;;;;;;11.98;2.05;;;;;;;;;;5092551;28;20454;-88
2023/12/30 03:56:50;;;;;;;8.25;2.20;;;;;;;;;;5091000;28;20487;-88
2023/12/30 03:59:37;;;;;;;8.82;1.58;;;;;;;;;;5057785;28;20051;-87
2023/12/30 04:02:21;;;;;;;7.30;2.63;;;;;;;;;;5071930;28;20039;-88
2023/12/30 04:05:06;;;;;;;10.18;2.30;;;;;;;;;;5071619;28;20085;-87
2023/12/30 04:07:51;;;;;;;7.25;1.48;;;;;;;;;;5054526;28;20047;-87
2023/12/30 04:10:35;;;;;;;11.70;1.88;;;;;;;;;;5070899;28;20448;-87
2023/12/30 04:13:20;;;;;;;9.90;1.88;;;;;;;;;;5045569;28;20048;-88
2023/12/30 04:16:04;;;;;;;12.70;1.80;;;;;;;;;;5063361;28;20063;-88
2023/12/30 04:18:49;;;;;;;13.50;2.25;;;;;;;;;;5072391;28;20031;-88
2023/12/30 04:21:34;;;;;;;9.63;1.60;;;;;;;;;;5056956;28;20044;-87
2023/12/30 04:24:19;;;;;;;13.50;2.10;;;;;;;;;;5057676;28;20443;-88
2023/12/30 04:27:04;;;;;;;17.02;3.80;;;;;;;;;;5041430;28;20473;-87
2023/12/30 04:29:48;;;;;;;15.38;1.98;;;;;;;;;;5069418;28;20576;-87
2023/12/30 04:32:33;;;;;;;10.10;1.60;;;;;;;;;;5057101;28;20047;-88
2023/12/30 04:35:17;;;;;;;12.82;1.90;;;;;;;;;;5060997;28;20082;-87
2023/12/30 04:38:02;;;;;;;20.73;2.90;;;;;;;;;;5052249;28;20090;-87
2023/12/30 04:40:46;;;;;;;9.38;1.65;;;;;;;;;;5056149;28;20051;-88
2023/12/30 04:43:31;;;;;;;20.60;2.35;;;;;;;;;;5061261;28;20032;-87
2023/12/30 04:46:15;;;;;;;8.50;1.67;;;;;;;;;;5038431;28;20128;-89
2023/12/30 04:49:02;;;;;;;17.67;2.83;;;;;;;;;;5050962;28;20046;-88
2023/12/30 04:51:47;;;;;;;7.65;1.50;;;;;;;;;;5062569;28;20056;-88
2023/12/30 04:54:31;;;;;;;10.93;2.08;;;;;;;;;;5071593;28;20044;-88
2023/12/30 04:57:16;;;;;;;6.55;1.50;;;;;;;;;;5056458;28;20059;-88
2023/12/30 05:00:00;;;;;;;12.30;2.05;;;;;;;;;;5056936;28;20238;-87
2023/12/30 05:02:45;;;;;;;12.70;1.77;;;;;;;;;;5043953;28;20549;-88
2023/12/30 05:05:29;;;;;;;6.18;1.25;;;;;;;;;;5039613;28;20397;-88
2023/12/30 05:08:14;;;;;;;10.40;2.08;;;;;;;;;;5049487;28;20078;-87
2023/12/30 05:10:58;;;;;;;15.52;1.95;;;;;;;;;;5045271;28;20057;-88
2023/12/30 05:13:44;;;;;;;7.53;1.50;;;;;;;;;;5070976;28;20523;-88
2023/12/30 05:16:29;;;;;;;14.23;2.28;;;;;;;;;;5056639;28;20082;-88
2023/12/30 05:19:13;;;;;;;12.50;2.85;;;;;;;;;;5036911;28;20082;-88
2023/12/30 05:21:58;;;;;;;9.25;1.50;;;;;;;;;;5055591;28;20039;-88
2023/12/30 05:24:42;;;;;;;10.80;1.52;;;;;;;;;;5055617;28;20511;-88
2023/12/30 05:27:27;;;;;;;9.68;2.67;;;;;;;;;;5056518;28;20407;-87
2023/12/30 05:30:11;;;;;;;13.63;1.70;;;;;;;;;;5055356;28;20040;-87
2023/12/30 05:32:56;;;;;;;12.52;1.90;;;;;;;;;;5055467;28;20121;-87
2023/12/30 05:35:40;;;;;;;11.93;1.73;;;;;;;;;;5071536;28;20604;-90
2023/12/30 05:38:25;;;;;;;10.77;1.80;;;;;;;;;;5045080;28;20046;-88
2023/12/30 05:41:10;;;;;;;15.18;2.05;;;;;;;;;;5041351;28;20043;-88
2023/12/30 05:43:54;;;;;;;10.18;2.08;;;;;;;;;;5041773;28;20038;-88
2023/12/30 05:46:39;;;;;;;12.02;1.88;;;;;;;;;;5059186;28;20123;-88
2023/12/30 05:49:23;;;;;;;8.45;2.17;;;;;;;;;;5055331;28;20051;-88
2023/12/30 05:52:08;;;;;;;11.60;2.22;;;;;;;;;;5056171;28;20158;-88
2023/12/30 05:54:53;;;;;;;10.07;1.48;;;;;;;;;;5044791;28;20499;-87
2023/12/30 05:57:37;;;;;;;13.32;2.33;;;;;;;;;;5063958;28;20514;-88
2023/12/30 06:00:22;;;;;;;10.95;2.20;;;;;;;;;;5091409;28;20081;-90
2023/12/30 06:03:07;;;;;;;8.88;2.22;;;;;;;;;;5080191;28;20043;-87
2023/12/30 06:05:51;;;;;;;14.00;1.42;;;;;;;;;;5090418;28;20031;-87
2023/12/30 06:08:36;;;;;;;18.30;3.95;;;;;;;;;;5075734;28;20043;-87
2023/12/30 06:11:20;;;;;;;11.63;1.80;;;;;;;;;;5076270;28;20458;-88
2023/12/30 06:14:05;;;;;;;14.85;1.80;;;;;;;;;;5090484;28;20097;-88
2023/12/30 06:16:49;;;;;;;13.05;2.35;;;;;;;;;;5061071;28;20075;-88
2023/12/30 06:19:34;;;;;;;11.45;2.33;;;;;;;;;;5075793;28;20097;-88
2023/12/30 06:22:19;;;;;;;11.43;2.03;;;;;;;;;;5078911;28;20518;-87
2023/12/30 06:25:04;;;;;;;13.73;1.83;;;;;;;;;;5075258;28;21087;-88
2023/12/30 06:27:48;;;;;;;14.23;1.75;;;;;;;;;;5090967;28;20035;-91
2023/12/30 06:30:33;;;;;;;10.10;1.42;;;;;;;;;;5082167;28;20047;-88
2023/12/30 06:33:17;;;;;;;16.75;1.90;;;;;;;;;;5075604;28;20074;-88
2023/12/30 06:36:02;;;;;;;18.67;2.65;;;;;;;;;;5078381;28;20055;-88
2023/12/30 06:38:47;;;;;;;8.55;2.00;;;;;;;;;;5084244;28;20127;-89
2023/12/30 06:41:31;;;;;;;14.55;2.10;;;;;;;;;;5058849;28;20218;-87
2023/12/30 06:44:16;;;;;;;12.35;1.67;;;;;;;;;;5090764;28;20487;-88
2023/12/30 06:47:01;;;;;;;15.77;2.25;;;;;;;;;;5090566;28;20098;-88
2023/12/30 06:49:45;;;;;;;12.02;1.95;;;;;;;;;;5090793;28;20051;-88
2023/12/30 06:52:30;;;;;;;12.77;2.10;;;;;;;;;;5091491;28;20051;-88
2023/12/30 06:55:14;;;;;;;5.30;1.20;;;;;;;;;;5079105;28;20043;-88
2023/12/30 06:57:59;;;;;;;12.57;2.13;;;;;;;;;;5076721;28;20511;-88
2023/12/30 07:00:44;;;;;;;14.10;2.97;;;;;;;;;;5078653;28;20043;-88
2023/12/30 07:03:28;;;;;;;10.50;1.70;;;;;;;;;;5064666;28;20039;-92
2023/12/30 07:06:13;;;;;;;20.10;3.50;;;;;;;;;;5087124;28;20745;-88
2023/12/30 07:08:57;;;;;;;7.55;1.60;;;;;;;;;;5092258;28;20399;-86
2023/12/30 07:11:42;;;;;;;7.93;1.80;;;;;;;;;;5073463;28;20043;-87
2023/12/30 07:14:27;;;;;;;11.90;1.92;;;;;;;;;;5074304;28;20046;-87
2023/12/30 07:17:12;;;;;;;10.82;1.58;;;;;;;;;;5073680;28;20067;-89
2023/12/30 07:19:58;;;;;;;9.55;1.90;;;;;;;;;;5058464;28;20462;-90
2023/12/30 07:22:43;;;;;;;14.00;2.28;;;;;;;;;;5066163;28;20139;-89
2023/12/30 07:25:28;;;;;;;14.48;1.90;;;;;;;;;;5088056;28;20040;-86
2023/12/30 07:28:13;;;;;;;9.20;1.55;;;;;;;;;;5074583;28;20046;-90
2023/12/30 07:30:58;;;;;;;8.82;1.88;;;;;;;;;;5089379;28;20059;-91
2023/12/30 07:33:43;;;;;;;13.05;3.22;;;;;;;;;;5083887;28;20085;-88
2023/12/30 07:36:27;;;;;;;15.93;2.22;;;;;;;;;;5076292;28;20184;-88
2023/12/30 07:39:13;;;;;;;16.23;2.35;;;;;;;;;;5070534;28;20137;-90
2023/12/30 07:41:57;;;;;;;11.68;2.17;;;;;;;;;;5078443;28;20483;-92
2023/12/30 07:44:42;;;;;;;9.20;1.70;;;;;;;;;;5075871;28;20053;-90
2023/12/30 07:47:27;;;;;;;10.07;2.33;;;;;;;;;;5074878;28;20535;-90
2023/12/30 07:50:12;;;;;;;11.82;1.88;;;;;;;;;;5059145;28;20043;-89
2023/12/30 07:52:56;;;;;;;14.18;1.85;;;;;;;;;;5084278;28;20043;-89
2023/12/30 07:55:40;;;;;;;11.32;2.08;;;;;;;;;;5078369;28;20116;-90
2023/12/30 07:58:25;;;;;;;8.82;1.80;;;;;;;;;;5041096;28;20059;-91
2023/12/30 08:01:09;;;;;;;11.80;2.00;;;;;;;;;;5071243;28;20067;-90
2023/12/30 08:03:54;;;;;;;13.27;3.58;;;;;;;;;;5052862;28;20512;-90
2023/12/30 08:06:39;;;;;;;8.40;1.70;;;;;;;;;;5041512;28;20067;-91
2023/12/30 08:09:24;;;;;;;19.95;2.58;;;;;;;;;;5072197;28;20039;-91
2023/12/30 08:12:09;;;;;;;15.00;2.25;;;;;;;;;;5057295;28;20047;-91
2023/12/30 08:14:54;;;;;;;20.38;2.63;;;;;;;;;;5073268;28;20039;-91
2023/12/30 08:17:38;;;;;;;10.82;1.92;;;;;;;;;;5067827;28;20476;-90
2023/12/30 08:20:23;;;;;;;15.70;2.53;;;;;;;;;;5057102;28;20039;-91
2023/12/30 08:23:07;;;;;;;8.18;1.42;;;;;;;;;;5072419;28;20040;-91
2023/12/30 08:25:52;;;;;;;13.30;2.20;;;;;;;;;;5047551;28;20107;-91
2023/12/30 08:28:37;;;;;;;14.80;1.95;;;;;;;;;;5072741;28;20052;-91
2023/12/30 08:31:21;;;;;;;11.65;1.80;;;;;;;;;;5045081;28;20055;-92
2023/12/30 08:34:06;;;;;;;11.57;1.80;;;;;;;;;;5057435;28;20520;-92
2023/12/30 08:36:51;;;;;;;16.85;1.88;;;;;;;;;;5057600;28;20063;-91
2023/12/30 08:39:39;;;;;;;10.00;2.05;;;;;;;;;;5072169;28;20062;-91
2023/12/30 08:42:23;;;;;;;13.70;1.70;;;;;;;;;;5037434;28;20047;-91
2023/12/30 08:45:09;;;;;;;10.05;1.80;;;;;;;;;;5052412;28;20040;-93
2023/12/30 08:47:53;;;;;;;12.00;2.00;;;;;;;;;;5041132;28;20523;-91
2023/12/30 08:50:38;;;;;;;13.18;3.03;;;;;;;;;;5057395;28;20043;-91
2023/12/30 08:53:24;;;;;;;11.90;1.90;;;;;;;;;;5056935;28;20079;-91
2023/12/30 08:56:09;;;;;;;12.18;2.08;;;;;;;;;;5057102;28;20063;-93
2023/12/30 08:58:54;;;;;;;11.32;2.08;;;;;;;;;;5062492;28;20090;-92
2023/12/30 09:01:38;;;;;;;19.15;2.40;;;;;;;;;;5063171;28;20145;-91
2023/12/30 09:04:23;;;;;;;11.02;2.00;;;;;;;;;;5076707;28;20527;-91
2023/12/30 09:07:10;;;;;;;11.98;1.60;;;;;;;;;;5062708;28;20545;-91
2023/12/30 09:09:55;;;;;;;8.00;1.80;;;;;;;;;;5077100;28;20063;-91
2023/12/30 09:12:42;;;;;;;16.98;2.50;;;;;;;;;;5052839;28;20549;-91
2023/12/30 09:15:26;;;;;;;10.73;1.90;;;;;;;;;;5060307;28;20392;-91
2023/12/30 09:18:11;;;;;;;10.95;1.80;;;;;;;;;;5076499;28;20044;-93
2023/12/30 09:20:55;;;;;;;13.52;2.08;;;;;;;;;;5076525;28;20039;-91
2023/12/30 09:23:40;;;;;;;11.30;1.90;;;;;;;;;;5091090;28;20039;-90
2023/12/30 09:26:25;;;;;;;11.20;2.00;;;;;;;;;;5076000;28;20038;-91
2023/12/30 09:29:09;;;;;;;13.13;1.98;;;;;;;;;;5062764;28;20097;-91
2023/12/30 09:31:54;;;;;;;9.88;1.88;;;;;;;;;;5064520;28;20399;-91
2023/12/30 09:34:39;;;;;;;8.55;1.52;;;;;;;;;;5090548;28;20113;-91
2023/12/30 09:37:23;;;;;;;8.50;2.65;;;;;;;;;;5076318;28;20055;-91
2023/12/30 09:40:08;;;;;;;9.90;2.03;;;;;;;;;;5076464;28;20089;-91
2023/12/30 09:42:54;;;;;;;10.73;2.08;;;;;;;;;;5076460;28;20030;-91
2023/12/30 09:45:39;;;;;;;8.57;2.20;;;;;;;;;;5091412;28;20510;-91
2023/12/30 09:48:27;;;;;;;10.93;2.20;;;;;;;;;;5076015;28;20046;-91
2023/12/30 09:51:12;;;;;;;10.93;2.10;;;;;;;;;;5076247;28;20387;-92
2023/12/30 09:53:57;;;;;;;11.15;2.42;;;;;;;;;;5075022;28;20117;-92
2023/12/30 09:56:41;;;;;;;12.23;2.33;;;;;;;;;;5080740;28;20446;-91
2023/12/30 09:59:26;;;;;;;11.80;2.03;;;;;;;;;;5057394;28;20047;-91
2023/12/30 10:02:12;;;;;;;13.07;2.03;;;;;;;;;;5069857;28;20082;-91
2023/12/30 10:04:58;;;;;;;14.35;1.65;;;;;;;;;;5071594;28;20035;-92
2023/12/30 10:07:42;;;;;;;15.13;2.00;;;;;;;;;;5054995;28;20040;-91
2023/12/30 10:10:54;;;;;;;8.77;1.90;;;;;;;;;;5041158;28;20607;-91
2023/12/30 10:13:38;;;;;;;10.18;2.90;;;;;;;;;;5054730;28;20039;-91
2023/12/30 10:16:24;;;;;;;11.27;2.58;;;;;;;;;;5041711;28;20052;-91
2023/12/30 10:19:09;;;;;;;13.30;2.20;;;;;;;;;;5041970;28;20086;-91
2023/12/30 10:21:55;;;;;;;12.55;2.40;;;;;;;;;;5054445;28;20071;-92
2023/12/30 10:24:40;;;;;;;13.10;2.53;;;;;;;;;;5070795;28;20110;-91
2023/12/30 10:27:25;;;;;;;12.48;2.67;;;;;;;;;;5046488;28;20040;-91
2023/12/30 10:30:12;;;;;;;12.55;1.83;;;;;;;;;;5058348;28;20113;-90
2023/12/30 10:33:07;;;;;;;15.80;2.45;;;;;;;;;;5074818;28;20499;-91
2023/12/30 10:35:51;;;;;;;10.23;2.42;;;;;;;;;;5075157;28;20450;-92
2023/12/30 10:38:36;;;;;;;8.25;1.63;;;;;;;;;;5034629;28;20039;-91
2023/12/30 10:41:21;;;;;;;10.63;1.88;;;;;;;;;;5059400;28;20047;-91
2023/12/30 10:44:06;;;;;;;10.25;2.00;;;;;;;;;;5045825;28;20110;-93
2023/12/30 10:46:52;;;;;;;6.43;1.60;;;;;;;;;;5049258;28;20085;-92
2023/12/30 10:49:38;;;;;;;10.05;2.00;;;;;;;;;;5058798;28;20047;-93
2023/12/30 10:52:26;;;;;;;10.32;2.70;;;;;;;;;;5074182;28;20051;-92
2023/12/30 10:55:13;;;;;;;7.88;1.20;;;;;;;;;;5074874;28;20036;-93
2023/12/30 10:58:03;;;;;;;8.75;1.50;;;;;;;;;;5058445;28;20054;-93
2023/12/30 11:00:57;;;;;;;9.25;1.65;;;;;;;;;;5094545;28;20050;-92
2023/12/30 11:03:42;;;;;;;8.15;1.75;;;;;;;;;;5065086;28;20181;-93
2023/12/30 11:06:42;;;;;;;6.78;1.63;;;;;;;;;;5065206;28;20039;-93
2023/12/30 11:09:27;;;;;;;10.35;2.25;;;;;;;;;;5094597;28;20413;-93
2023/12/30 11:12:12;;;;;;;6.72;1.73;;;;;;;;;;5094795;28;20537;-93
2023/12/30 11:15:00;;;;;;;8.23;2.38;;;;;;;;;;5065101;28;20043;-96
2023/12/30 11:17:47;;;;;;;8.27;1.90;;;;;;;;;;5069434;28;20089;-93
2023/12/30 11:20:33;;;;;;;11.98;2.47;;;;;;;;;;5094142;28;20047;-93
2023/12/30 11:23:22;;;;;;;5.82;1.50;;;;;;;;;;5078796;28;21227;-93
2023/12/30 11:26:12;;;;;;;6.78;1.90;;;;;;;;;;5079011;28;20495;-93
2023/12/30 11:29:01;;;;;;;9.30;1.95;;;;;;;;;;5068916;28;20511;-93
2023/12/30 11:31:47;;;;;;;7.93;1.73;;;;;;;;;;5093579;28;20042;-93
2023/12/30 11:34:36;;;;;;;8.38;1.95;;;;;;;;;;5064921;28;20417;-94
2023/12/30 11:37:21;;;;;;;12.15;2.03;;;;;;;;;;5079146;28;20050;-93
2023/12/30 11:40:09;;;;;;;10.23;2.40;;;;;;;;;;5051677;28;20043;-94
2023/12/30 11:42:53;;;;;;;8.25;1.58;;;;;;;;;;5065059;28;20077;-95
2023/12/30 11:45:40;;;;;;;12.55;2.38;;;;;;;;;;5079246;28;20472;-94
2023/12/30 11:48:25;;;;;;;11.77;2.78;;;;;;;;;;5068860;28;20107;-94
2023/12/30 11:51:18;;;;;;;9.23;2.22;;;;;;;;;;5051344;28;20500;-94
2023/12/30 11:54:06;;;;;;;14.93;2.28;;;;;;;;;;5079083;28;20047;-94
2023/12/30 11:56:59;;;;;;;12.32;2.42;;;;;;;;;;5078353;28;20039;-94
2023/12/30 11:59:47;;;;;;;7.90;2.20;;;;;;;;;;5045044;28;20123;-93
2023/12/30 12:02:32;;;;;;;6.22;2.33;;;;;;;;;;5059239;28;20055;-93
2023/12/30 12:05:16;;;;;;;6.55;2.10;;;;;;;;;;5044284;28;20039;-92
2023/12/30 12:08:02;;;;;;;12.63;2.80;;;;;;;;;;5044094;28;20131;-93
2023/12/30 12:10:50;;;;;;;14.50;2.58;;;;;;;;;;5057555;28;20043;-93
2023/12/30 12:13:39;;;;;;;9.80;2.67;;;;;;;;;;5058690;28;20047;-94
2023/12/30 12:16:25;;;;;;;10.48;3.17;;;;;;;;;;5046022;28;20090;-94
2023/12/30 12:19:12;;;;;;;8.00;2.70;;;;;;;;;;5033748;28;20047;-93
2023/12/30 12:22:00;;;;;;;9.23;2.53;;;;;;;;;;5057680;28;20113;-92
2023/12/30 12:24:45;;;;;;;9.07;2.35;;;;;;;;;;5057360;28;20035;-92
2023/12/30 12:27:30;;;;;;;15.57;3.38;;;;;;;;;;5058118;28;20039;-93
2023/12/30 12:30:15;;;;;;;8.30;2.60;;;;;;;;;;5052724;28;20044;-92
2023/12/30 12:33:03;;;;;;;8.15;2.72;;;;;;;;;;5053098;28;20083;-94
2023/12/30 12:36:00;;;;;;;11.63;2.40;;;;;;;;;;5057815;28;20071;-94
2023/12/30 12:39:05;;;;;;;9.30;2.33;;;;;;;;;;5047691;28;20054;-94
2023/12/30 12:42:10;;;;;;;17.70;3.38;;;;;;;;;;5057834;28;20044;-94
2023/12/30 12:45:06;;;;;;;9.95;2.60;;;;;;;;;;5045102;28;20035;-93
2023/12/30 12:48:02;;;;;;;11.27;2.38;;;;;;;;;;5043992;28;20094;-93
2023/12/30 12:50:55;;;;;;;9.65;2.53;;;;;;;;;;5056569;28;20071;-93
2023/12/30 12:53:47;;;;;;;18.15;2.92;;;;;;;;;;5045140;28;20048;-94
2023/12/30 12:56:47;;;;;;;14.63;3.05;;;;;;;;;;5038671;28;20506;-93
2023/12/30 12:59:41;;;;;;;13.00;3.10;;;;;;;;;;5052312;28;20063;-94
2023/12/30 13:02:34;;;;;;;12.82;2.97;;;;;;;;;;5065060;28;20043;-94
2023/12/30 13:05:24;;;;;;;15.85;3.05;;;;;;;;;;5085417;28;20043;-93
2023/12/30 13:08:17;;;;;;;13.38;2.50;;;;;;;;;;5083476;28;20089;-92
2023/12/30 13:11:14;;;;;;;17.08;3.08;;;;;;;;;;5086784;28;20031;-94
2023/12/30 13:13:59;;;;;;;11.77;2.50;;;;;;;;;;5095890;28;20066;-93
2023/12/30 13:16:47;;;;;;;16.80;2.80;;;;;;;;;;5097080;28;20066;-95
2023/12/30 13:19:39;;;;;;;11.00;2.47;;;;;;;;;;5094720;28;20047;-93
2023/12/30 13:22:24;;;;;;;12.18;2.65;;;;;;;;;;5079552;28;20047;-94
2023/12/30 13:25:12;;;;;;;20.23;4.15;;;;;;;;;;5098393;28;20058;-94
2023/12/30 13:28:19;;;;;;;13.48;2.95;;;;;;;;;;5099321;28;20039;-94
2023/12/30 13:31:21;;;;;;;11.38;2.95;;;;;;;;;;5102578;28;20081;-93
2023/12/30 13:34:09;;;;;;;9.43;2.35;;;;;;;;;;5097146;28;20260;-94
2023/12/30 13:37:15;;;;;;;;;;;;;;;;;;;;;
2023/12/30 13:40:10;;;;;;;15.07;2.80;;;;;;;;;;5078569;28;20483;-93
2023/12/30 13:43:04;;;;;;;20.20;3.22;;;;;;;;;;5077519;28;20039;-93
2023/12/30 13:45:59;;;;;;;10.98;2.10;;;;;;;;;;5076776;28;20065;-95
2023/12/30 13:55:12;;;;;;;13.90;3.42;;;;;;;;;;5083385;28;20602;-93
2023/12/30 13:58:21;;;;;;;12.68;3.38;;;;;;;;;;5064095;28;20446;-93
2023/12/30 14:01:08;;;;;;;14.98;3.55;;;;;;;;;;5091177;28;20039;-93
2023/12/30 14:03:57;;;;;;;14.68;4.03;;;;;;;;;;5061784;28;20046;-93
2023/12/30 14:06:55;;;;;;;16.42;3.38;;;;;;;;;;5076474;28;20043;-95
2023/12/30 14:09:54;;;;;;;15.80;3.28;;;;;;;;;;5054220;28;20128;-95
2023/12/30 14:12:49;;;;;;;15.95;3.13;;;;;;;;;;5065869;28;20047;-93
2023/12/30 14:15:39;;;;;;;10.88;3.13;;;;;;;;;;5076031;28;20063;-94
2023/12/30 14:18:36;;;;;;;16.98;3.35;;;;;;;;;;5061721;28;20067;-95
2023/12/30 14:24:35;;;;;;;15.23;4.15;;;;;;;;;;5080966;28;20499;-94
2023/12/30 14:27:36;;;;;;;12.52;3.97;;;;;;;;;;5065832;28;20031;-94
2023/12/30 14:33:29;;;;;;;11.48;3.97;;;;;;;;;;5077415;28;20404;-94
2023/12/30 14:42:36;;;;;;;22.10;4.80;;;;;;;;;;5088528;28;20113;-95
2023/12/30 14:46:00;;;;;;;15.00;4.57;;;;;;;;;;5076220;28;20039;-94
2023/12/30 14:49:01;;;;;;;15.80;5.10;;;;;;;;;;5082629;28;20065;-94
2023/12/30 14:52:09;;;;;;;24.73;6.28;;;;;;;;;;5075925;28;20043;-94
2023/12/30 14:54:54;;;;;;;22.55;6.43;;;;;;;;;;5068407;28;20047;-93
2023/12/30 14:57:39;;;;;;;24.98;7.90;;;;;;;;;;5074988;28;20511;-93
2023/12/30 15:00:26;;;;;;;24.77;7.95;;;;;;;;;;5075305;28;20078;-94
2023/12/30 15:03:19;;;;;;;26.58;9.07;;;;;;;;;;5075789;28;20392;-92
2023/12/30 15:06:23;;;;;;;28.98;9.68;;;;;;;;;;5049486;28;20075;-92
2023/12/30 15:09:21;;;;;;;;;;;;;;;;;;;;;
2023/12/30 15:12:09;;;;;;;32.72;9.43;;;;;;;;;;5089885;28;20035;-93
2023/12/30 15:15:18;;;;;;;28.95;8.27;;;;;;;;;;5065298;28;20082;-93
2023/12/30 15:18:09;;;;;;;23.70;8.35;;;;;;;;;;5079126;28;20046;-94
2023/12/30 15:21:16;;;;;;;22.77;7.68;;;;;;;;;;5079572;28;20593;-93
2023/12/30 15:24:03;;;;;;;24.00;7.35;;;;;;;;;;5068557;28;20035;-94
2023/12/30 15:26:51;;;;;;;20.30;7.72;;;;;;;;;;5079220;28;20031;-93
2023/12/30 15:29:43;;;;;;;27.88;8.73;;;;;;;;;;5079152;28;20043;-94
2023/12/30 15:32:31;;;;;;;34.38;9.85;;;;;;;;;;5078631;28;20047;-93
2023/12/30 15:35:39;;;;;;;19.48;8.25;;;;;;;;;;5068017;28;20042;-92
2023/12/30 15:38:31;;;;;;;24.00;9.65;;;;;;;;;;5093978;28;20267;-94
2023/12/30 15:41:41;;;;;;;23.98;10.45;;;;;;;;;;5065189;28;20081;-93
2023/12/30 15:44:38;;;;;;;30.70;11.15;;;;;;;;;;5065357;28;20972;-93
2023/12/30 15:47:35;;;;;;;;;;;;;;;;;;;;;
2023/12/30 15:50:30;;;;;;;26.15;10.68;;;;;;;;;;5093944;28;20097;-93
2023/12/30 15:53:20;;;;;;;25.75;10.75;;;;;;;;;;5067247;28;20043;-93
2023/12/30 15:56:13;;;;;;;20.95;9.02;;;;;;;;;;5078707;28;20031;-94
2023/12/30 15:59:19;;;;;;;;;;;;;;;;;;;;;
2023/12/30 16:02:11;;;;;;;33.15;11.00;;;;;;;;;;5060910;28;20506;-92
2023/12/30 16:05:14;;;;;;;27.02;9.85;;;;;;;;;;5047535;28;20039;-93
2023/12/30 16:08:01;;;;;;;29.50;10.40;;;;;;;;;;5049224;28;20047;-92
2023/12/30 16:10:55;;;;;;;;;;;;;;;;;;;;;
2023/12/30 16:13:42;;;;;;;25.38;9.63;;;;;;;;;;5060488;28;20039;-93
2023/12/30 16:16:27;;;;;;;30.50;10.63;;;;;;;;;;5057791;28;20670;-93
2023/12/30 16:19:23;;;;;;;28.17;10.50;;;;;;;;;;5047903;28;20098;-93
2023/12/30 16:22:15;;;;;;;25.38;10.23;;;;;;;;;;5058045;28;20031;-92
2023/12/30 16:25:07;;;;;;;24.85;9.48;;;;;;;;;;5057562;28;20082;-92
2023/12/30 16:28:04;;;;;;;29.02;9.93;;;;;;;;;;5053682;28;20036;-92
2023/12/30 16:30:51;;;;;;;29.13;9.55;;;;;;;;;;5056766;28;20039;-93
2023/12/30 16:33:40;;;;;;;26.83;10.13;;;;;;;;;;5028182;28;20529;-95
2023/12/30 16:36:27;;;;;;;31.58;10.27;;;;;;;;;;5054559;28;20035;-92
2023/12/30 16:39:12;;;;;;;28.38;10.15;;;;;;;;;;5054195;28;20111;-94
2023/12/30 16:41:56;;;;;;;21.52;8.80;;;;;;;;;;5041543;28;20032;-92
2023/12/30 16:44:41;;;;;;;24.52;9.82;;;;;;;;;;5056098;28;20034;-94
2023/12/30 16:47:27;;;;;;;24.95;9.80;;;;;;;;;;5045667;28;20082;-94
2023/12/30 16:50:12;;;;;;;25.15;9.93;;;;;;;;;;5049485;28;20051;-93
2023/12/30 16:52:57;;;;;;;26.48;9.55;;;;;;;;;;5042955;28;20508;-92
2023/12/30 16:55:44;;;;;;;22.58;8.90;;;;;;;;;;5073197;28;20557;-94